St. Andrew — C6YQ2 — position and weather

sailwx.info

Track history (hours):
 
Tides and Currents Weather Stations Pressure Air Temp Water Temp Dewpoint Dewpoint Depression Visibility Wind Speed Wind Dir Waves Ship Positions

St. Andrew

Last reported at 2018-May-26 14:00 UTC. Time now 2018-May-26 14:08 UTC.
Position N 31°31' E 121°24'.

Length 180 m; draft 10 m.

Type: Cargo ship. MMSI: 311041600.

Date/timePositionNaut miles runAvg speedWind from/ knotsBaromVisibWave heightAir tempDewpointWater temp
2018-May-26 14:00N 31°31' E 121°24'611.0
2018-May-26 13:30N 31°27' E 121°29'63 1.4
2018-May-24 15:21N 31°08' E 122°39'0 0.0
2018-May-24 14:53N 31°08' E 122°39'0 0.1
2018-May-24 14:23N 31°08' E 122°39'0 0.1
2018-May-24 13:57N 31°08' E 122°39'0 0.0
2018-May-24 08:37N 31°09' E 122°39'1 0.3
2018-May-24 06:27N 31°08' E 122°39'0 0.1
2018-May-24 05:57N 31°08' E 122°39'0 0.0
2018-May-24 05:27N 31°08' E 122°39'0 0.0
2018-May-24 04:45N 31°08' E 122°39'0 0.1
2018-May-24 03:54N 31°08' E 122°39'0 0.0
2018-May-24 03:24N 31°08' E 122°39'0 0.0
2018-May-24 02:39N 31°08' E 122°39'0 0.0
2018-May-24 02:30N 31°08' E 122°39'0 0.0
2018-May-23 23:09N 31°08' E 122°39'0 0.0
2018-May-23 22:54N 31°08' E 122°39'0 0.1
2018-May-23 21:03N 31°08' E 122°39'0 0.0
2018-May-23 21:00N 31°08' E 122°39'0 0.1
2018-May-23 20:15N 31°08' E 122°39'0 0.0
2018-May-23 20:00N 31°08' E 122°39'0 0.1
2018-May-23 17:18N 31°08' E 122°39'0 0.0
2018-May-23 16:54N 31°08' E 122°39'0 0.1
2018-May-23 16:30N 31°08' E 122°39'0 0.0
2018-May-23 14:51N 31°08' E 122°39'0 0.1
2018-May-23 14:24N 31°08' E 122°39'0 0.1
2018-May-23 13:03N 31°08' E 122°39'0 0.0
2018-May-23 12:48N 31°08' E 122°39'0 0.1
2018-May-23 10:45N 31°08' E 122°39'0 0.9
2018-May-23 10:30N 31°08' E 122°39'4 8.0
2018-May-23 09:59N 31°05' E 122°41'453 9.3
2018-May-21 09:29N 24°19' E 118°54'510.2
2018-May-21 08:59N 24°15' E 118°50'510.2
2018-May-21 08:28N 24°11' E 118°46'910.4
2018-May-21 07:36N 24°04' E 118°39'110.5
2018-May-21 07:28N 24°03' E 118°38'910.7
2018-May-21 06:38N 23°56' E 118°32'4211.2
2018-May-21 02:54N 23°25' E 118°02'  
Track history (hours):
 
Tides and Currents Weather Stations Pressure Air Temp Water Temp Dewpoint Dewpoint Depression Visibility Wind Speed Wind Dir Waves Ship Positions

St. Andrew

Last reported at 2018-May-26 14:00 UTC. Time now 2018-May-26 14:08 UTC.
Position N 31°31' E 121°24'.

Length 180 m; draft 10 m.

Type: Cargo ship. MMSI: 311041600.

Date/timePositionNaut miles runAvg speedWind from/ knotsBaromVisibWave heightAir tempDewpointWater temp
2018-May-26 14:00N 31°31' E 121°24'611.0
2018-May-26 13:30N 31°27' E 121°29'63 1.4
2018-May-24 15:21N 31°08' E 122°39'0 0.0
2018-May-24 14:53N 31°08' E 122°39'0 0.1
2018-May-24 14:23N 31°08' E 122°39'0 0.1
2018-May-24 13:57N 31°08' E 122°39'0 0.0
2018-May-24 08:37N 31°09' E 122°39'1 0.3
2018-May-24 06:27N 31°08' E 122°39'0 0.1
2018-May-24 05:57N 31°08' E 122°39'0 0.0
2018-May-24 05:27N 31°08' E 122°39'0 0.0
2018-May-24 04:45N 31°08' E 122°39'0 0.1
2018-May-24 03:54N 31°08' E 122°39'0 0.0
2018-May-24 03:24N 31°08' E 122°39'0 0.0
2018-May-24 02:39N 31°08' E 122°39'0 0.0
2018-May-24 02:30N 31°08' E 122°39'0 0.0
2018-May-23 23:09N 31°08' E 122°39'0 0.0
2018-May-23 22:54N 31°08' E 122°39'0 0.1
2018-May-23 21:03N 31°08' E 122°39'0 0.0
2018-May-23 21:00N 31°08' E 122°39'0 0.1
2018-May-23 20:15N 31°08' E 122°39'0 0.0
2018-May-23 20:00N 31°08' E 122°39'0 0.1
2018-May-23 17:18N 31°08' E 122°39'0 0.0
2018-May-23 16:54N 31°08' E 122°39'0 0.1
2018-May-23 16:30N 31°08' E 122°39'0 0.0
2018-May-23 14:51N 31°08' E 122°39'0 0.1
2018-May-23 14:24N 31°08' E 122°39'0 0.1
2018-May-23 13:03N 31°08' E 122°39'0 0.0
2018-May-23 12:48N 31°08' E 122°39'0 0.1
2018-May-23 10:45N 31°08' E 122°39'0 0.9
2018-May-23 10:30N 31°08' E 122°39'4 8.0
2018-May-23 09:59N 31°05' E 122°41'453 9.3
2018-May-21 09:29N 24°19' E 118°54'510.2
2018-May-21 08:59N 24°15' E 118°50'510.2
2018-May-21 08:28N 24°11' E 118°46'910.4
2018-May-21 07:36N 24°04' E 118°39'110.5
2018-May-21 07:28N 24°03' E 118°38'910.7
2018-May-21 06:38N 23°56' E 118°32'4211.2
2018-May-21 02:54N 23°25' E 118°02'  

Dump ship's entire track history